Time,TemperatureF,DewpointF,PressureIn,WindDirection,WindDirectionDegrees,WindSpeedMPH,WindSpeedGustMPH,Humidity,HourlyPrecipIn,Conditions,Clouds,dailyrainin,SoftwareType,DateUTC
2013-01-26 00:03:00,51.9,46.0,30.16,North,360,0.0,-999.0,80,-99.99,,,0.00,weatherlink.com 1.10,2013-01-26 07:03:00,
2013-01-26 00:18:00,51.9,46.0,30.15,North,360,0.0,-999.0,80,-99.99,,,0.00,weatherlink.com 1.10,2013-01-26 07:18:00,
2013-01-26 00:33:00,51.9,46.0,30.15,North,3,2.0,-999.0,79,-99.99,,,0.00,weatherlink.com 1.10,2013-01-26 07:33:00,
2013-01-26 00:48:00,51.7,45.0,30.14,North,8,1.0,-999.0,79,-99.99,,,0.00,weatherlink.com 1.10,2013-01-26 07:48:00,
2013-01-26 01:03:00,51.7,45.0,30.15,North,8,0.0,-999.0,79,-99.99,,,0.00,weatherlink.com 1.10,2013-01-26 08:03:00,
2013-01-26 01:18:00,51.7,45.0,30.15,North,8,0.0,-999.0,79,-99.99,,,0.00,weatherlink.com 1.10,2013-01-26 08:18:00,
2013-01-26 01:33:00,51.8,45.0,30.15,North,8,0.0,-999.0,78,-99.99,,,0.00,weatherlink.com 1.10,2013-01-26 08:33:00,
2013-01-26 01:48:00,51.8,45.0,30.15,North,8,0.0,-999.0,78,-99.99,,,0.00,weatherlink.com 1.10,2013-01-26 08:48:00,
2013-01-26 02:03:00,51.8,46.0,30.14,North,8,0.0,-999.0,79,-99.99,,,0.00,weatherlink.com 1.10,2013-01-26 09:03:00,
2013-01-26 02:18:00,51.8,46.0,30.14,North,8,0.0,-999.0,79,-99.99,,,0.00,weatherlink.com 1.10,2013-01-26 09:18:00,
2013-01-26 02:33:00,51.6,45.0,30.14,NNE,12,1.0,-999.0,79,-99.99,,,0.00,weatherlink.com 1.10,2013-01-26 09:33:00,
2013-01-26 02:48:00,51.5,46.0,30.14,NNE,12,0.0,-999.0,80,-99.99,,,0.00,weatherlink.com 1.10,2013-01-26 09:48:00,
2013-01-26 03:03:00,51.4,46.0,30.13,NNE,12,0.0,-999.0,81,-99.99,,,0.00,weatherlink.com 1.10,2013-01-26 10:03:00,
2013-01-26 03:18:00,51.2,46.0,30.13,NNE,12,0.0,-999.0,82,-99.99,,,0.00,weatherlink.com 1.10,2013-01-26 10:18:00,
2013-01-26 03:33:00,51.1,46.0,30.13,NNE,12,0.0,-999.0,82,-99.99,,,0.00,weatherlink.com 1.10,2013-01-26 10:33:00,
2013-01-26 03:48:00,51.1,46.0,30.13,NNE,12,0.0,-999.0,83,-99.99,,,0.00,weatherlink.com 1.10,2013-01-26 10:48:00,
2013-01-26 04:03:00,50.8,46.0,30.13,NNE,12,1.0,-999.0,84,-99.99,,,0.00,weatherlink.com 1.10,2013-01-26 11:03:00,
2013-01-26 04:18:00,50.3,46.0,30.13,NNE,12,0.0,-999.0,86,-99.99,,,0.00,weatherlink.com 1.10,2013-01-26 11:18:00,
2013-01-26 04:33:00,49.7,46.0,30.13,NNE,12,0.0,-999.0,87,-99.99,,,0.00,weatherlink.com 1.10,2013-01-26 11:33:00,
2013-01-26 04:48:00,49.2,46.0,30.14,NNE,12,0.0,-999.0,88,-99.99,,,0.00,weatherlink.com 1.10,2013-01-26 11:48:00,
2013-01-26 05:03:00,48.8,45.0,30.14,NNE,12,0.0,-999.0,88,-99.99,,,0.00,weatherlink.com 1.10,2013-01-26 12:03:00,
2013-01-26 05:18:00,48.6,46.0,30.14,NNE,12,0.0,-999.0,89,-99.99,,,0.00,weatherlink.com 1.10,2013-01-26 12:18:00,
2013-01-26 05:33:00,48.5,46.0,30.15,NNE,12,0.0,-999.0,89,-99.99,,,0.00,weatherlink.com 1.10,2013-01-26 12:33:00,
2013-01-26 05:48:00,48.2,46.0,30.16,NNE,12,0.0,-999.0,90,-99.99,,,0.00,weatherlink.com 1.10,2013-01-26 12:48:00,
2013-01-26 06:03:00,48.1,45.0,30.16,NNE,12,0.0,-999.0,90,-99.99,,,0.00,weatherlink.com 1.10,2013-01-26 13:03:00,
2013-01-26 06:18:00,48.2,46.0,30.16,NNE,12,0.0,-999.0,90,-99.99,,,0.00,weatherlink.com 1.10,2013-01-26 13:18:00,
2013-01-26 06:33:00,48.1,45.0,30.16,NNE,12,0.0,-999.0,90,-99.99,,,0.00,weatherlink.com 1.10,2013-01-26 13:33:00,
2013-01-26 06:48:00,48.0,45.0,30.17,NNE,12,0.0,-999.0,90,-99.99,,,0.00,weatherlink.com 1.10,2013-01-26 13:48:00,
2013-01-26 07:03:00,48.2,46.0,30.17,NNE,12,0.0,-999.0,91,-99.99,,,0.00,weatherlink.com 1.10,2013-01-26 14:03:00,
2013-01-26 07:18:00,48.3,46.0,30.17,NNE,12,0.0,-999.0,91,-99.99,,,0.00,weatherlink.com 1.10,2013-01-26 14:18:00,
2013-01-26 07:33:00,48.4,46.0,30.18,NNE,12,0.0,-999.0,91,-99.99,,,0.00,weatherlink.com 1.10,2013-01-26 14:33:00,
2013-01-26 07:48:00,48.7,46.0,30.18,NNE,12,0.0,-999.0,91,-99.99,,,0.00,weatherlink.com 1.10,2013-01-26 14:48:00,
2013-01-26 08:03:00,49.0,47.0,30.18,NNE,12,0.0,-999.0,91,-99.99,,,0.00,weatherlink.com 1.10,2013-01-26 15:03:00,
2013-01-26 08:18:00,49.1,47.0,30.18,NNE,12,0.0,-999.0,91,-99.99,,,0.00,weatherlink.com 1.10,2013-01-26 15:18:00,
2013-01-26 08:33:00,49.5,47.0,30.18,NNE,12,0.0,-999.0,92,-99.99,,,0.00,weatherlink.com 1.10,2013-01-26 15:33:00,
2013-01-26 08:48:00,49.7,48.0,30.18,NNE,13,0.0,-999.0,92,-99.99,,,0.00,weatherlink.com 1.10,2013-01-26 15:48:00,
2013-01-26 09:03:00,50.2,48.0,30.19,NNE,13,0.0,-999.0,92,-99.99,,,0.00,weatherlink.com 1.10,2013-01-26 16:03:00,
2013-01-26 09:18:00,50.8,49.0,30.19,NNE,24,0.0,-999.0,92,-99.99,,,0.00,weatherlink.com 1.10,2013-01-26 16:18:00,
2013-01-26 09:33:00,51.5,49.0,30.19,ESE,109,0.0,-999.0,92,-99.99,,,0.00,weatherlink.com 1.10,2013-01-26 16:33:00,
2013-01-26 09:48:00,52.0,50.0,30.19,ESE,123,0.0,-999.0,92,-99.99,,,0.00,weatherlink.com 1.10,2013-01-26 16:48:00,
2013-01-26 10:03:00,52.4,50.0,30.20,ESE,123,0.0,-999.0,92,-99.99,,,0.00,weatherlink.com 1.10,2013-01-26 17:03:00,
2013-01-26 10:18:00,53.0,51.0,30.19,ESE,123,0.0,-999.0,92,-99.99,,,0.00,weatherlink.com 1.10,2013-01-26 17:18:00,
2013-01-26 10:33:00,53.2,51.0,30.19,ENE,71,0.0,-999.0,92,-99.99,,,0.00,weatherlink.com 1.10,2013-01-26 17:33:00,
2013-01-26 10:48:00,54.2,52.0,30.17,East,90,0.0,-999.0,91,-99.99,,,0.00,weatherlink.com 1.10,2013-01-26 17:48:00,
2013-01-26 11:03:00,55.1,52.0,30.17,ESE,113,0.0,-999.0,90,-99.99,,,0.00,weatherlink.com 1.10,2013-01-26 18:03:00,
2013-01-26 11:18:00,56.1,53.0,30.16,East,95,1.0,-999.0,89,-99.99,,,0.00,weatherlink.com 1.10,2013-01-26 18:18:00,
2013-01-26 11:33:00,57.1,53.0,30.16,ESE,110,1.0,-999.0,86,-99.99,,,0.00,weatherlink.com 1.10,2013-01-26 18:33:00,
2013-01-26 11:48:00,57.6,53.0,30.15,NE,44,0.0,-999.0,85,-99.99,,,0.00,weatherlink.com 1.10,2013-01-26 18:48:00,
2013-01-26 12:03:00,58.4,53.0,30.14,ENE,63,0.0,-999.0,83,-99.99,,,0.00,weatherlink.com 1.10,2013-01-26 19:03:00,
2013-01-26 12:18:00,59.0,54.0,30.13,SE,130,0.0,-999.0,83,-99.99,,,0.00,weatherlink.com 1.10,2013-01-26 19:18:00,
2013-01-26 12:33:00,59.0,54.0,30.13,ESE,120,1.0,-999.0,83,-99.99,,,0.00,weatherlink.com 1.10,2013-01-26 19:33:00,
2013-01-26 12:48:00,59.3,54.0,30.13,ESE,111,3.0,-999.0,83,-99.99,,,0.00,weatherlink.com 1.10,2013-01-26 19:48:00,
2013-01-26 13:03:00,59.1,54.0,30.12,ESE,105,2.0,-999.0,84,-99.99,,,0.00,weatherlink.com 1.10,2013-01-26 20:03:00,
2013-01-26 13:18:00,59.2,54.0,30.12,ESE,105,4.0,-999.0,83,-99.99,,,0.00,weatherlink.com 1.10,2013-01-26 20:18:00,
2013-01-26 13:33:00,59.3,55.0,30.11,ESE,123,3.0,-999.0,84,-99.99,,,0.00,weatherlink.com 1.10,2013-01-26 20:33:00,
2013-01-26 13:48:00,59.5,55.0,30.11,ESE,113,0.0,-999.0,85,-99.99,,,0.00,weatherlink.com 1.10,2013-01-26 20:48:00,
2013-01-26 14:03:00,59.7,55.0,30.10,ESE,122,0.0,-999.0,85,-99.99,,,0.00,weatherlink.com 1.10,2013-01-26 21:03:00,
2013-01-26 14:18:00,59.8,55.0,30.10,ESE,105,4.0,-999.0,85,-99.99,,,0.00,weatherlink.com 1.10,2013-01-26 21:18:00,
2013-01-26 14:33:00,59.8,55.0,30.10,SE,137,0.0,-999.0,85,-99.99,,,0.00,weatherlink.com 1.10,2013-01-26 21:33:00,
2013-01-26 14:48:00,59.9,55.0,30.10,ESE,121,0.0,-999.0,85,-99.99,,,0.00,weatherlink.com 1.10,2013-01-26 21:48:00,
2013-01-26 15:03:00,61.0,57.0,30.10,SSE,159,0.0,-999.0,86,-99.99,,,0.00,weatherlink.com 1.10,2013-01-26 22:03:00,
2013-01-26 15:18:00,61.8,57.0,30.10,SE,144,0.0,-999.0,84,-99.99,,,0.00,weatherlink.com 1.10,2013-01-26 22:18:00,
2013-01-26 15:33:00,62.2,57.0,30.09,South,169,2.0,-999.0,83,-99.99,,,0.00,weatherlink.com 1.10,2013-01-26 22:33:00,
2013-01-26 15:48:00,62.4,57.0,30.10,SSE,167,2.0,-999.0,83,-99.99,,,0.00,weatherlink.com 1.10,2013-01-26 22:48:00,
2013-01-26 16:03:00,62.7,57.0,30.09,ESE,121,0.0,-999.0,82,-99.99,,,0.00,weatherlink.com 1.10,2013-01-26 23:03:00,
2013-01-26 16:18:00,63.0,57.0,30.10,SSE,152,0.0,-999.0,82,-99.99,,,0.00,weatherlink.com 1.10,2013-01-26 23:18:00,
2013-01-26 16:33:00,62.9,57.0,30.10,ESE,122,0.0,-999.0,81,-99.99,,,0.00,weatherlink.com 1.10,2013-01-26 23:33:00,
2013-01-26 16:48:00,62.5,57.0,30.10,ESE,122,0.0,-999.0,82,-99.99,,,0.00,weatherlink.com 1.10,2013-01-26 23:48:00,
2013-01-26 17:03:00,62.0,56.0,30.10,ESE,122,0.0,-999.0,82,-99.99,,,0.00,weatherlink.com 1.10,2013-01-27 00:03:00,
2013-01-26 17:18:00,61.2,56.0,30.10,ESE,122,0.0,-999.0,84,-99.99,,,0.00,weatherlink.com 1.10,2013-01-27 00:18:00,
2013-01-26 17:33:00,60.7,56.0,30.10,ESE,122,0.0,-999.0,85,-99.99,,,0.00,weatherlink.com 1.10,2013-01-27 00:33:00,
2013-01-26 17:48:00,60.3,56.0,30.10,ESE,122,0.0,-999.0,85,-99.99,,,0.00,weatherlink.com 1.10,2013-01-27 00:48:00,
2013-01-26 18:03:00,59.0,55.0,30.11,ESE,122,0.0,-999.0,85,-99.99,,,0.00,weatherlink.com 1.10,2013-01-27 01:03:00,
2013-01-26 18:18:00,58.0,54.0,30.11,ESE,122,0.0,-999.0,86,-99.99,,,0.00,weatherlink.com 1.10,2013-01-27 01:18:00,
2013-01-26 18:33:00,57.1,53.0,30.11,ESE,122,0.0,-999.0,86,-99.99,,,0.00,weatherlink.com 1.10,2013-01-27 01:33:00,
2013-01-26 18:48:00,56.7,53.0,30.11,ESE,122,0.0,-999.0,87,-99.99,,,0.00,weatherlink.com 1.10,2013-01-27 01:48:00,
2013-01-26 19:03:00,56.5,53.0,30.11,ESE,122,0.0,-999.0,88,-99.99,,,0.00,weatherlink.com 1.10,2013-01-27 02:03:00,
2013-01-26 19:18:00,56.4,53.0,30.12,ESE,122,0.0,-999.0,89,-99.99,,,0.00,weatherlink.com 1.10,2013-01-27 02:18:00,
2013-01-26 19:33:00,56.8,54.0,30.12,ESE,122,0.0,-999.0,89,-99.99,,,0.00,weatherlink.com 1.10,2013-01-27 02:33:00,
2013-01-26 19:48:00,57.0,54.0,30.12,ESE,122,0.0,-999.0,90,-99.99,,,0.00,weatherlink.com 1.10,2013-01-27 02:48:00,
2013-01-26 20:03:00,57.0,54.0,30.12,SE,138,4.0,-999.0,90,-99.99,,,0.00,weatherlink.com 1.10,2013-01-27 03:03:00,
2013-01-26 20:18:00,56.8,54.0,30.13,SE,136,0.0,-999.0,90,-99.99,,,0.00,weatherlink.com 1.10,2013-01-27 03:18:00,
2013-01-26 20:33:00,56.7,54.0,30.13,SE,128,1.0,-999.0,90,-99.99,,,0.00,weatherlink.com 1.10,2013-01-27 03:33:00,
2013-01-26 20:48:00,57.0,54.0,30.13,East,89,0.0,-999.0,90,-99.99,,,0.00,weatherlink.com 1.10,2013-01-27 03:48:00,
2013-01-26 21:03:00,57.0,54.0,30.13,East,100,0.0,-999.0,90,-99.99,,,0.00,weatherlink.com 1.10,2013-01-27 04:03:00,
2013-01-26 21:18:00,57.1,54.0,30.14,East,100,0.0,-999.0,90,-99.99,,,0.00,weatherlink.com 1.10,2013-01-27 04:18:00,
2013-01-26 21:33:00,56.9,54.0,30.14,East,95,0.0,-999.0,90,-99.99,,,0.00,weatherlink.com 1.10,2013-01-27 04:33:00,
2013-01-26 21:48:00,56.6,54.0,30.14,East,95,0.0,-999.0,90,-99.99,,,0.00,weatherlink.com 1.10,2013-01-27 04:48:00,
2013-01-26 22:03:00,56.4,54.0,30.14,East,95,0.0,-999.0,90,-99.99,,,0.00,weatherlink.com 1.10,2013-01-27 05:03:00,
2013-01-26 22:18:00,56.4,54.0,30.14,East,95,0.0,-999.0,90,-99.99,,,0.00,weatherlink.com 1.10,2013-01-27 05:18:00,
2013-01-26 22:33:00,57.6,55.0,30.13,SSE,164,3.0,-999.0,91,-99.99,,,0.00,weatherlink.com 1.10,2013-01-27 05:33:00,
2013-01-26 22:48:00,58.4,56.0,30.13,SE,131,1.0,-999.0,90,-99.99,,,0.00,weatherlink.com 1.10,2013-01-27 05:48:00,
2013-01-26 23:03:00,58.7,56.0,30.13,SSE,163,6.0,-999.0,89,-99.99,,,0.00,weatherlink.com 1.10,2013-01-27 06:03:00,
2013-01-26 23:18:00,59.0,56.0,30.12,SSE,168,2.0,-999.0,88,-99.99,,,0.00,weatherlink.com 1.10,2013-01-27 06:18:00,
2013-01-26 23:33:00,59.0,55.0,30.11,South,173,3.0,-999.0,87,-99.99,,,0.00,weatherlink.com 1.10,2013-01-27 06:33:00,
2013-01-26 23:48:00,59.0,55.0,30.11,South,178,5.0,-999.0,87,-99.99,,,0.00,weatherlink.com 1.10,2013-01-27 06:48:00,